Time;durP1;ratioP1;P1;durP2;ratioP2;P2;SDS_P1;SDS_P2;PMS_P1;PMS_P2;Temp;Humidity;BMP_temperature;BMP_pressure;BME280_temperature;BME280_humidity;BME280_pressure;Samples;Min_cycle;Max_cycle;Signal;HPM_P1;HPM_P2
2023/10/23 00:00:06;;;;;;;3.00;1.67;;;15.50;77.10;;;;;;349713;28;999;-53
2023/10/23 00:00:17;;;;;;;3.00;1.73;;;15.50;77.00;;;;;;349562;28;1086;-54
2023/10/23 00:00:27;;;;;;;3.03;1.85;;;15.50;76.90;;;;;;349689;28;992;-52
2023/10/23 00:00:38;;;;;;;3.22;1.95;;;15.50;77.00;;;;;;349715;28;1026;-53
2023/10/23 00:00:49;;;;;;;3.38;1.90;;;15.50;77.00;;;;;;349643;28;1008;-53
2023/10/23 00:01:00;;;;;;;3.55;1.77;;;15.50;77.00;;;;;;349736;28;940;-52
2023/10/23 00:01:10;;;;;;;4.67;1.80;;;15.50;76.90;;;;;;349679;28;1824;-52
2023/10/23 00:01:21;;;;;;;4.38;1.60;;;15.50;76.80;;;;;;349679;28;1098;-53
2023/10/23 00:01:39;;;;;;;3.90;1.63;;;15.40;77.00;;;;;;349641;28;1285;-53
2023/10/23 00:01:50;;;;;;;3.60;1.70;;;15.40;77.10;;;;;;349628;28;1517;-52
2023/10/23 00:02:00;;;;;;;3.67;1.75;;;15.50;77.20;;;;;;349672;28;1083;-53
2023/10/23 00:02:11;;;;;;;4.03;1.73;;;15.50;77.10;;;;;;349609;28;1344;-52
2023/10/23 00:02:22;;;;;;;4.28;1.70;;;15.50;77.10;;;;;;349681;28;1197;-52
2023/10/23 00:02:33;;;;;;;4.68;1.60;;;15.40;77.10;;;;;;349662;28;1027;-52
2023/10/23 00:02:44;;;;;;;4.00;1.50;;;15.40;77.20;;;;;;349643;28;1036;-53
2023/10/23 00:02:55;;;;;;;3.88;1.58;;;15.50;77.20;;;;;;349714;28;979;-53
2023/10/23 00:03:05;;;;;;;3.58;1.52;;;15.50;77.30;;;;;;349748;28;1007;-54
2023/10/23 00:03:16;;;;;;;3.73;1.60;;;15.50;77.30;;;;;;349613;28;1910;-54
2023/10/23 00:03:27;;;;;;;3.22;1.50;;;15.50;77.30;;;;;;349692;28;1011;-53
2023/10/23 00:03:37;;;;;;;3.35;1.67;;;15.50;77.30;;;;;;349661;28;1107;-53
2023/10/23 00:03:48;;;;;;;3.47;1.70;;;15.50;77.20;;;;;;349665;28;918;-53
2023/10/23 00:03:59;;;;;;;3.53;1.70;;;15.50;77.20;;;;;;349632;28;1385;-53
2023/10/23 00:04:10;;;;;;;3.90;1.70;;;15.50;77.20;;;;;;349685;28;1927;-53
2023/10/23 00:04:20;;;;;;;3.33;1.60;;;15.50;77.10;;;;;;349636;28;1345;-52
2023/10/23 00:04:32;;;;;;;3.30;1.65;;;15.50;77.00;;;;;;349748;28;948;-53
2023/10/23 00:04:43;;;;;;;2.70;1.40;;;15.50;77.00;;;;;;349678;28;1035;-52
2023/10/23 00:04:54;;;;;;;2.90;1.50;;;15.50;77.00;;;;;;349641;28;1135;-53
2023/10/23 00:05:05;;;;;;;3.38;1.70;;;15.50;77.10;;;;;;349628;28;1391;-52
2023/10/23 00:05:16;;;;;;;3.28;1.63;;;15.50;76.90;;;;;;349662;28;1111;-53
2023/10/23 00:05:27;;;;;;;2.95;1.42;;;15.50;76.90;;;;;;349590;28;1685;-52
2023/10/23 00:05:37;;;;;;;2.83;1.40;;;15.50;77.00;;;;;;349670;28;1117;-53
2023/10/23 00:05:48;;;;;;;3.60;1.43;;;15.50;77.00;;;;;;349718;28;1926;-52
2023/10/23 00:05:59;;;;;;;3.70;1.45;;;15.50;77.00;;;;;;349590;28;1231;-53
2023/10/23 00:06:09;;;;;;;4.22;1.80;;;15.50;77.00;;;;;;349712;28;1393;-52
2023/10/23 00:06:20;;;;;;;4.20;2.00;;;15.50;77.00;;;;;;349674;28;1607;-52
2023/10/23 00:06:31;;;;;;;4.22;2.17;;;15.50;77.10;;;;;;349614;28;992;-53
2023/10/23 00:06:42;;;;;;;4.15;2.22;;;15.50;77.20;;;;;;349645;28;1070;-52
2023/10/23 00:06:52;;;;;;;4.10;2.45;;;15.50;77.20;;;;;;349646;28;1508;-53
2023/10/23 00:07:03;;;;;;;4.23;2.40;;;15.50;77.30;;;;;;349623;28;1057;-52
2023/10/23 00:07:14;;;;;;;3.80;2.03;;;15.50;77.30;;;;;;349695;28;1027;-53
2023/10/23 00:07:25;;;;;;;3.55;1.92;;;15.60;77.30;;;;;;349710;28;984;-53
2023/10/23 00:07:35;;;;;;;3.78;2.00;;;15.60;77.30;;;;;;349554;28;1602;-53
2023/10/23 00:07:46;;;;;;;3.50;1.80;;;15.60;77.30;;;;;;349688;28;1079;-52
2023/10/23 00:07:57;;;;;;;3.15;1.60;;;15.60;77.20;;;;;;349691;28;1297;-53
2023/10/23 00:08:07;;;;;;;2.90;1.70;;;15.60;77.20;;;;;;349649;28;901;-53
2023/10/23 00:08:18;;;;;;;3.72;2.00;;;15.60;77.20;;;;;;349689;28;1165;-53
2023/10/23 00:08:29;;;;;;;4.53;2.17;;;15.60;77.30;;;;;;349684;28;1074;-53
2023/10/23 00:08:39;;;;;;;4.55;2.17;;;15.60;77.20;;;;;;349654;28;931;-52
2023/10/23 00:08:50;;;;;;;3.58;2.05;;;15.60;77.20;;;;;;349676;28;1002;-53
2023/10/23 00:09:01;;;;;;;2.50;1.63;;;15.60;77.20;;;;;;349727;28;1987;-53
2023/10/23 00:09:12;;;;;;;2.90;1.38;;;15.60;77.10;;;;;;349556;28;1114;-51
2023/10/23 00:09:23;;;;;;;3.10;1.23;;;15.60;77.00;;;;;;349765;28;872;-53
2023/10/23 00:09:33;;;;;;;3.40;1.30;;;15.60;77.00;;;;;;349727;28;891;-53
2023/10/23 00:09:44;;;;;;;3.15;1.52;;;15.60;77.00;;;;;;349626;28;974;-53
2023/10/23 00:09:55;;;;;;;3.60;1.67;;;15.60;77.00;;;;;;349697;28;1102;-52
2023/10/23 00:10:06;;;;;;;3.73;1.80;;;15.70;77.00;;;;;;349748;28;866;-53
2023/10/23 00:10:17;;;;;;;4.65;2.30;;;15.70;77.00;;;;;;349649;28;1094;-53
2023/10/23 00:10:28;;;;;;;4.05;2.28;;;15.70;77.00;;;;;;349696;28;936;-53
2023/10/23 00:10:38;;;;;;;3.53;1.88;;;15.70;76.90;;;;;;349603;28;1106;-53
2023/10/23 00:10:49;;;;;;;3.47;1.53;;;15.70;76.60;;;;;;349659;28;1004;-53
2023/10/23 00:11:00;;;;;;;4.10;1.50;;;15.60;76.20;;;;;;349636;28;1167;-53
2023/10/23 00:11:22;;;;;;;3.88;1.50;;;15.50;76.60;;;;;;349713;28;926;-52
2023/10/23 00:11:33;;;;;;;4.05;1.50;;;15.60;76.90;;;;;;349671;28;996;-53
2023/10/23 00:11:43;;;;;;;3.90;1.60;;;15.60;76.90;;;;;;349703;28;821;-53
2023/10/23 00:11:54;;;;;;;3.30;1.80;;;15.60;77.00;;;;;;349686;28;878;-53
2023/10/23 00:12:07;;;;;;;2.90;1.80;;;15.60;77.10;;;;;;349713;28;1011;-53
2023/10/23 00:12:18;;;;;;;2.60;1.55;;;15.60;77.00;;;;;;349575;28;1107;-53
2023/10/23 00:12:28;;;;;;;2.50;1.40;;;15.60;76.90;;;;;;349733;28;920;-53
2023/10/23 00:12:39;;;;;;;2.55;1.40;;;15.60;76.80;;;;;;349595;28;1016;-53
2023/10/23 00:12:50;;;;;;;2.87;1.60;;;15.60;76.80;;;;;;349741;28;1046;-53
2023/10/23 00:13:00;;;;;;;3.17;1.63;;;15.60;76.80;;;;;;349642;28;992;-53
2023/10/23 00:13:11;;;;;;;3.45;1.67;;;15.70;76.70;;;;;;349674;28;1008;-53
2023/10/23 00:13:22;;;;;;;3.08;1.50;;;15.70;76.70;;;;;;349706;28;893;-53
2023/10/23 00:13:33;;;;;;;2.95;1.40;;;15.70;76.60;;;;;;349645;28;1059;-53
2023/10/23 00:13:43;;;;;;;2.93;1.37;;;15.70;76.70;;;;;;349711;28;991;-53
2023/10/23 00:13:55;;;;;;;3.25;1.50;;;15.70;76.70;;;;;;349593;28;1017;-53
2023/10/23 00:14:06;;;;;;;2.78;1.40;;;15.70;76.70;;;;;;349676;28;1452;-53
2023/10/23 00:14:16;;;;;;;2.43;1.23;;;15.70;76.60;;;;;;349646;28;876;-53
2023/10/23 00:14:27;;;;;;;2.00;1.23;;;15.60;76.70;;;;;;349699;28;991;-53
2023/10/23 00:14:38;;;;;;;2.45;1.25;;;15.60;76.70;;;;;;349697;28;1153;-53
2023/10/23 00:14:49;;;;;;;2.50;1.48;;;15.60;76.70;;;;;;349648;28;1032;-52
2023/10/23 00:15:00;;;;;;;2.50;1.50;;;15.60;76.70;;;;;;349702;28;1007;-52
2023/10/23 00:15:10;;;;;;;2.37;1.37;;;15.60;76.80;;;;;;349542;28;1122;-53
2023/10/23 00:15:21;;;;;;;2.97;1.50;;;15.60;76.80;;;;;;349655;28;968;-52
2023/10/23 00:15:32;;;;;;;4.13;1.98;;;15.60;76.80;;;;;;349565;28;1122;-52
2023/10/23 00:15:43;;;;;;;4.15;2.08;;;15.60;76.90;;;;;;349695;28;857;-53
2023/10/23 00:15:53;;;;;;;3.95;1.77;;;15.60;77.00;;;;;;349657;28;1570;-53
2023/10/23 00:16:04;;;;;;;3.50;1.40;;;15.70;77.00;;;;;;349626;28;922;-53
2023/10/23 00:16:15;;;;;;;3.17;1.30;;;15.70;77.00;;;;;;349697;28;1022;-53
2023/10/23 00:16:26;;;;;;;2.47;1.30;;;15.70;77.00;;;;;;349645;28;887;-52
2023/10/23 00:16:36;;;;;;;2.67;1.40;;;15.70;77.10;;;;;;349687;28;1049;-52
2023/10/23 00:16:47;;;;;;;3.15;1.45;;;15.70;77.10;;;;;;349724;28;1070;-52
2023/10/23 00:16:58;;;;;;;3.33;1.60;;;15.70;77.00;;;;;;349655;28;1027;-53
2023/10/23 00:17:08;;;;;;;3.50;1.80;;;15.70;77.00;;;;;;349617;28;1469;-52
2023/10/23 00:17:19;;;;;;;2.97;1.60;;;15.70;77.00;;;;;;349525;28;1360;-53
2023/10/23 00:17:30;;;;;;;2.45;1.33;;;15.70;77.00;;;;;;349682;28;1015;-53
2023/10/23 00:17:41;;;;;;;2.43;1.10;;;15.70;76.90;;;;;;349579;28;1185;-53
2023/10/23 00:17:51;;;;;;;2.47;1.30;;;15.70;76.80;;;;;;349712;28;852;-54
2023/10/23 00:18:02;;;;;;;2.90;1.35;;;15.60;76.90;;;;;;349604;28;1103;-53
2023/10/23 00:18:13;;;;;;;2.53;1.25;;;15.70;76.90;;;;;;349612;28;2184;-51
2023/10/23 00:18:25;;;;;;;2.20;1.02;;;15.70;76.90;;;;;;349632;28;1034;-53
2023/10/23 00:18:35;;;;;;;2.03;1.00;;;15.70;76.80;;;;;;349663;28;1039;-52
2023/10/23 00:18:46;;;;;;;3.72;1.25;;;15.70;76.70;;;;;;349564;28;1217;-53
2023/10/23 00:18:57;;;;;;;4.28;1.50;;;15.60;76.50;;;;;;349684;28;884;-54
2023/10/23 00:19:08;;;;;;;4.15;1.50;;;15.60;76.70;;;;;;349652;28;868;-52
2023/10/23 00:19:18;;;;;;;2.67;1.33;;;15.60;76.70;;;;;;349746;28;1023;-52
2023/10/23 00:19:29;;;;;;;2.20;1.20;;;15.70;76.90;;;;;;349587;28;1017;-53
2023/10/23 00:19:40;;;;;;;2.58;1.25;;;15.70;76.90;;;;;;349708;28;817;-53
2023/10/23 00:19:50;;;;;;;2.75;1.20;;;15.70;77.00;;;;;;349650;28;1053;-53
2023/10/23 00:20:04;;;;;;;2.80;1.10;;;15.70;76.80;;;;;;349666;28;1090;-52
2023/10/23 00:20:15;;;;;;;2.42;1.05;;;15.70;76.70;;;;;;349580;28;1122;-52
2023/10/23 00:20:26;;;;;;;2.15;1.02;;;15.70;76.50;;;;;;349716;28;848;-53
2023/10/23 00:20:36;;;;;;;2.05;1.13;;;15.60;76.40;;;;;;349583;28;1106;-53
2023/10/23 00:20:47;;;;;;;2.30;1.30;;;15.70;76.60;;;;;;349677;28;979;-53
2023/10/23 00:20:58;;;;;;;2.28;1.30;;;15.60;76.70;;;;;;349560;28;1209;-53
2023/10/23 00:21:09;;;;;;;2.20;1.20;;;15.70;76.70;;;;;;349719;28;976;-52
2023/10/23 00:21:20;;;;;;;1.90;1.20;;;15.70;76.70;;;;;;349560;28;1553;-52
2023/10/23 00:21:30;;;;;;;2.00;1.20;;;15.70;76.70;;;;;;349641;28;1099;-53
2023/10/23 00:21:42;;;;;;;2.33;1.30;;;15.70;76.70;;;;;;349580;28;1157;-53
2023/10/23 00:21:53;;;;;;;2.45;1.33;;;15.60;76.70;;;;;;349702;28;959;-52
2023/10/23 00:22:04;;;;;;;2.22;1.25;;;15.70;76.80;;;;;;349676;28;1572;-53
2023/10/23 00:22:14;;;;;;;2.07;1.20;;;15.60;76.80;;;;;;349693;28;891;-53
2023/10/23 00:22:25;;;;;;;2.40;1.30;;;15.60;76.80;;;;;;349666;28;987;-53
2023/10/23 00:22:36;;;;;;;2.38;1.27;;;15.60;76.80;;;;;;349595;28;1818;-53
2023/10/23 00:22:46;;;;;;;3.03;1.60;;;15.60;76.80;;;;;;349652;28;1099;-53
2023/10/23 00:22:57;;;;;;;2.80;1.58;;;15.60;76.80;;;;;;349719;28;877;-53
2023/10/23 00:23:08;;;;;;;3.20;1.60;;;15.70;76.90;;;;;;349677;28;964;-53
2023/10/23 00:23:19;;;;;;;3.90;1.40;;;15.60;76.90;;;;;;349628;28;1971;-52
2023/10/23 00:23:29;;;;;;;3.73;1.40;;;15.70;76.80;;;;;;349560;28;1582;-52
2023/10/23 00:23:40;;;;;;;2.85;1.40;;;15.60;76.80;;;;;;349663;28;1074;-53
2023/10/23 00:23:51;;;;;;;1.80;1.20;;;15.60;76.70;;;;;;349712;28;844;-53
2023/10/23 00:24:02;;;;;;;1.70;1.10;;;15.60;76.80;;;;;;349660;28;1181;-53
2023/10/23 00:24:12;;;;;;;2.38;1.23;;;15.60;76.80;;;;;;349709;28;880;-54
2023/10/23 00:24:23;;;;;;;2.50;1.30;;;15.60;76.90;;;;;;349561;28;1158;-52
2023/10/23 00:24:34;;;;;;;2.33;1.30;;;15.70;76.80;;;;;;349693;28;849;-52
2023/10/23 00:24:45;;;;;;;2.60;1.50;;;15.70;76.80;;;;;;349694;28;895;-53
2023/10/23 00:24:55;;;;;;;2.72;1.48;;;15.70;76.80;;;;;;349679;28;1843;-53
2023/10/23 00:25:06;;;;;;;2.70;1.47;;;15.70;76.80;;;;;;349705;28;868;-52
2023/10/23 00:25:17;;;;;;;2.03;1.20;;;15.70;76.70;;;;;;349558;28;1647;-54
2023/10/23 00:25:28;;;;;;;1.85;1.20;;;15.70;76.70;;;;;;349627;28;1457;-53
2023/10/23 00:25:38;;;;;;;1.80;1.10;;;15.70;76.60;;;;;;349723;28;881;-53
2023/10/23 00:25:49;;;;;;;1.83;1.00;;;15.60;76.10;;;;;;349695;28;895;-53
2023/10/23 00:26:00;;;;;;;2.40;1.00;;;15.50;76.10;;;;;;349673;28;979;-54
2023/10/23 00:26:10;;;;;;;2.63;1.10;;;15.50;76.50;;;;;;349602;28;926;-53
2023/10/23 00:26:21;;;;;;;2.75;1.25;;;15.50;76.80;;;;;;349672;28;1007;-53
2023/10/23 00:26:32;;;;;;;2.80;1.20;;;15.40;76.90;;;;;;349639;28;1615;-53
2023/10/23 00:26:42;;;;;;;2.80;1.17;;;15.40;77.00;;;;;;349685;28;1108;-53
2023/10/23 00:26:53;;;;;;;1.92;1.00;;;15.40;76.80;;;;;;349700;28;1130;-53
2023/10/23 00:27:04;;;;;;;1.65;1.00;;;15.40;77.10;;;;;;349581;28;1133;-54
2023/10/23 00:27:15;;;;;;;1.65;1.00;;;15.40;77.20;;;;;;349630;28;1079;-54
2023/10/23 00:27:26;;;;;;;1.77;1.07;;;15.30;77.40;;;;;;349652;28;1032;-53
2023/10/23 00:27:37;;;;;;;2.85;1.27;;;15.40;77.40;;;;;;349634;28;1015;-53
2023/10/23 00:27:47;;;;;;;2.77;1.27;;;15.30;77.30;;;;;;349622;28;1161;-53
2023/10/23 00:27:58;;;;;;;2.45;1.10;;;15.40;77.40;;;;;;349698;28;1069;-53
2023/10/23 00:28:09;;;;;;;1.85;1.13;;;15.40;77.40;;;;;;349567;28;972;-53
2023/10/23 00:28:19;;;;;;;2.08;1.27;;;15.40;77.40;;;;;;349663;28;1964;-53
2023/10/23 00:28:30;;;;;;;2.30;1.43;;;15.40;77.40;;;;;;349539;28;1402;-52
2023/10/23 00:28:41;;;;;;;2.00;1.30;;;15.40;77.50;;;;;;349702;28;1054;-53
2023/10/23 00:28:52;;;;;;;2.05;1.23;;;15.40;77.60;;;;;;349628;28;1027;-53
2023/10/23 00:29:03;;;;;;;2.08;1.20;;;15.50;77.60;;;;;;349659;28;972;-53
2023/10/23 00:29:14;;;;;;;2.03;1.05;;;15.50;77.60;;;;;;349511;28;1657;-53
2023/10/23 00:29:24;;;;;;;2.05;1.08;;;15.50;77.40;;;;;;349674;28;1063;-53
2023/10/23 00:29:35;;;;;;;2.07;1.00;;;15.50;77.30;;;;;;349605;28;952;-52
2023/10/23 00:29:46;;;;;;;1.90;1.00;;;15.50;77.20;;;;;;349679;28;964;-53
2023/10/23 00:29:56;;;;;;;1.80;0.90;;;15.50;77.20;;;;;;349585;28;1471;-51
2023/10/23 00:30:08;;;;;;;1.45;0.90;;;15.50;77.20;;;;;;349694;28;899;-53
2023/10/23 00:30:18;;;;;;;1.75;1.10;;;15.50;77.20;;;;;;349569;28;1146;-53
2023/10/23 00:30:33;;;;;;;2.20;1.35;;;15.50;77.10;;;;;;349710;28;999;-53
2023/10/23 00:30:44;;;;;;;3.67;2.33;;;15.60;77.10;;;;;;349569;28;2009;-53
2023/10/23 00:30:55;;;;;;;4.45;2.67;;;15.60;77.10;;;;;;349693;28;876;-53
2023/10/23 00:31:05;;;;;;;5.00;2.67;;;15.60;77.20;;;;;;349533;28;1072;-52
2023/10/23 00:31:16;;;;;;;4.43;2.13;;;15.60;77.20;;;;;;349632;28;1091;-53
2023/10/23 00:31:27;;;;;;;3.47;1.70;;;15.60;77.10;;;;;;349591;28;1050;-53
2023/10/23 00:31:38;;;;;;;4.75;2.63;;;15.60;77.00;;;;;;349642;28;1307;-53
2023/10/23 00:31:48;;;;;;;5.50;3.13;;;15.70;77.00;;;;;;349598;28;1115;-53
2023/10/23 00:31:59;;;;;;;4.88;2.55;;;15.60;76.90;;;;;;349585;28;1103;-53
2023/10/23 00:32:10;;;;;;;2.92;1.50;;;15.60;76.90;;;;;;349650;28;991;-52
2023/10/23 00:32:20;;;;;;;2.10;1.00;;;15.60;76.80;;;;;;349709;28;907;-53
2023/10/23 00:32:31;;;;;;;2.13;0.90;;;15.60;76.80;;;;;;349606;28;979;-53
2023/10/23 00:32:42;;;;;;;1.88;0.75;;;15.60;76.70;;;;;;349666;28;1368;-53
2023/10/23 00:32:53;;;;;;;2.63;0.80;;;15.60;76.60;;;;;;349660;28;1026;-53
2023/10/23 00:33:03;;;;;;;2.65;0.90;;;15.60;76.50;;;;;;349605;28;1892;-53
2023/10/23 00:33:14;;;;;;;2.60;0.97;;;15.70;76.50;;;;;;349650;28;1098;-53
2023/10/23 00:33:26;;;;;;;2.33;0.95;;;15.70;76.50;;;;;;349679;28;880;-53
2023/10/23 00:33:36;;;;;;;2.33;1.13;;;15.70;76.40;;;;;;349572;28;1128;-53
2023/10/23 00:33:47;;;;;;;2.27;1.30;;;15.70;76.40;;;;;;349698;28;899;-52
2023/10/23 00:33:58;;;;;;;2.33;1.40;;;15.70;76.40;;;;;;349668;28;1597;-52
2023/10/23 00:34:08;;;;;;;2.95;1.17;;;15.70;76.30;;;;;;349556;28;1098;-53
2023/10/23 00:34:19;;;;;;;3.00;1.00;;;15.70;76.20;;;;;;349663;28;1481;-53
2023/10/23 00:34:30;;;;;;;3.03;1.07;;;15.70;76.10;;;;;;349740;28;857;-53
2023/10/23 00:34:41;;;;;;;3.22;1.50;;;15.70;76.10;;;;;;349569;28;972;-53
2023/10/23 00:34:51;;;;;;;3.28;1.70;;;15.60;76.10;;;;;;349691;28;1754;-53
2023/10/23 00:35:02;;;;;;;3.45;1.67;;;15.70;76.10;;;;;;349686;28;955;-53
2023/10/23 00:35:13;;;;;;;3.38;1.85;;;15.70;75.90;;;;;;349434;28;1438;-53
2023/10/23 00:35:24;;;;;;;3.38;1.90;;;15.60;76.00;;;;;;349638;28;1126;-53
2023/10/23 00:35:36;;;;;;;3.10;1.58;;;15.60;75.60;;;;;;349675;28;1047;-52
2023/10/23 00:35:46;;;;;;;2.05;1.02;;;15.50;75.40;;;;;;349582;28;1094;-52
2023/10/23 00:35:57;;;;;;;1.70;0.85;;;15.50;75.40;;;;;;349672;28;963;-52
2023/10/23 00:36:08;;;;;;;2.22;0.95;;;15.40;75.60;;;;;;349657;28;1039;-52
2023/10/23 00:36:18;;;;;;;2.60;1.17;;;15.40;75.80;;;;;;349581;28;1448;-53
2023/10/23 00:36:29;;;;;;;3.10;1.40;;;15.40;75.90;;;;;;349632;28;1030;-53
2023/10/23 00:36:40;;;;;;;2.65;1.30;;;15.40;75.80;;;;;;349620;28;1477;-52
2023/10/23 00:36:50;;;;;;;2.35;0.93;;;15.40;75.80;;;;;;349579;28;1050;-53
2023/10/23 00:37:01;;;;;;;2.20;0.90;;;15.30;76.00;;;;;;349676;28;955;-52
2023/10/23 00:37:12;;;;;;;1.75;0.80;;;15.30;76.00;;;;;;349674;28;979;-53
2023/10/23 00:37:23;;;;;;;1.70;0.88;;;15.30;76.10;;;;;;349711;28;860;-53
2023/10/23 00:37:34;;;;;;;1.63;0.90;;;15.30;76.10;;;;;;349581;28;1034;-53
2023/10/23 00:37:45;;;;;;;1.85;1.00;;;15.30;76.10;;;;;;349672;28;928;-54
2023/10/23 00:37:56;;;;;;;2.13;1.20;;;15.30;75.80;;;;;;349630;28;1568;-53
2023/10/23 00:38:06;;;;;;;1.85;1.20;;;15.30;76.00;;;;;;349533;28;1348;-53
2023/10/23 00:38:17;;;;;;;1.60;1.10;;;15.20;76.10;;;;;;349691;28;887;-53
2023/10/23 00:38:28;;;;;;;1.90;1.00;;;15.20;76.20;;;;;;349688;28;1015;-53
2023/10/23 00:38:39;;;;;;;2.20;1.20;;;15.20;76.30;;;;;;349546;28;1197;-53
2023/10/23 00:38:50;;;;;;;2.77;1.70;;;15.30;76.40;;;;;;349698;28;864;-53
2023/10/23 00:39:00;;;;;;;2.85;2.08;;;15.30;76.50;;;;;;349670;28;1012;-53
2023/10/23 00:39:11;;;;;;;3.63;2.70;;;15.30;76.50;;;;;;349677;28;1020;-53
2023/10/23 00:39:22;;;;;;;3.97;2.90;;;15.30;76.50;;;;;;349529;28;1469;-53
2023/10/23 00:39:32;;;;;;;3.58;2.40;;;15.30;76.50;;;;;;349713;28;904;-53
2023/10/23 00:39:43;;;;;;;2.22;1.35;;;15.40;76.60;;;;;;349700;28;1007;-53
2023/10/23 00:39:54;;;;;;;0.98;0.70;;;15.40;76.10;;;;;;349686;28;856;-54
2023/10/23 00:40:05;;;;;;;0.73;0.53;;;15.40;75.80;;;;;;349627;28;951;-53
2023/10/23 00:40:16;;;;;;;0.90;0.60;;;15.40;75.80;;;;;;349702;28;1521;-54
2023/10/23 00:40:27;;;;;;;1.23;0.70;;;15.30;75.20;;;;;;349617;28;1177;-53
2023/10/23 00:40:37;;;;;;;1.63;0.73;;;15.20;75.10;;;;;;349621;28;991;-53
2023/10/23 00:40:48;;;;;;;2.17;0.95;;;15.20;75.60;;;;;;349696;28;1008;-53
2023/10/23 00:40:59;;;;;;;2.70;1.38;;;15.20;75.70;;;;;;349633;28;1158;-53
2023/10/23 00:41:09;;;;;;;2.70;1.50;;;15.20;75.90;;;;;;349627;28;1804;-55
2023/10/23 00:41:20;;;;;;;2.47;1.45;;;15.20;76.10;;;;;;349545;28;1158;-52
2023/10/23 00:41:31;;;;;;;3.35;1.58;;;15.20;76.20;;;;;;349643;28;1027;-55
2023/10/23 00:41:42;;;;;;;4.68;2.25;;;15.20;76.30;;;;;;349630;28;1169;-54
2023/10/23 00:41:53;;;;;;;4.88;2.35;;;15.30;76.40;;;;;;349605;28;1050;-53
2023/10/23 00:42:04;;;;;;;3.35;1.48;;;15.20;76.40;;;;;;349690;28;893;-54
2023/10/23 00:42:15;;;;;;;1.80;0.68;;;15.30;76.30;;;;;;349667;28;968;-53
2023/10/23 00:42:26;;;;;;;1.52;0.60;;;15.30;76.00;;;;;;349575;28;1007;-53
2023/10/23 00:42:36;;;;;;;1.38;0.60;;;15.30;76.00;;;;;;349678;28;1011;-53
2023/10/23 00:42:47;;;;;;;1.53;0.70;;;15.30;75.80;;;;;;349691;28;813;-53
2023/10/23 00:43:09;;;;;;;1.42;0.70;;;15.40;75.80;;;;;;349566;28;984;-53
2023/10/23 00:43:22;;;;;;;1.88;0.90;;;15.40;75.70;;;;;;349504;28;1960;-53
2023/10/23 00:43:34;;;;;;;2.15;1.00;;;15.40;75.50;;;;;;349561;28;1133;-53
2023/10/23 00:43:44;;;;;;;2.00;0.98;;;15.40;75.40;;;;;;349610;28;1115;-53
2023/10/23 00:43:55;;;;;;;1.77;0.80;;;15.40;75.50;;;;;;349653;28;1087;-53
2023/10/23 00:44:06;;;;;;;2.42;1.35;;;15.40;75.50;;;;;;349589;28;1738;-53
2023/10/23 00:44:17;;;;;;;3.23;2.10;;;15.40;75.50;;;;;;349662;28;928;-53
2023/10/23 00:44:27;;;;;;;3.55;2.40;;;15.40;75.40;;;;;;349664;28;1095;-53
2023/10/23 00:44:38;;;;;;;3.45;2.10;;;15.40;75.40;;;;;;349531;28;1166;-53
2023/10/23 00:44:49;;;;;;;2.50;1.40;;;15.50;75.50;;;;;;349679;28;844;-53
2023/10/23 00:44:59;;;;;;;1.67;1.00;;;15.40;75.50;;;;;;349695;28;964;-53
2023/10/23 00:45:10;;;;;;;1.40;0.75;;;15.50;75.50;;;;;;349567;28;997;-52
2023/10/23 00:45:21;;;;;;;1.90;0.88;;;15.50;75.40;;;;;;349639;28;1429;-54
2023/10/23 00:45:32;;;;;;;2.00;0.95;;;15.50;75.40;;;;;;349718;28;983;-53
2023/10/23 00:46:01;;;;;;;1.33;0.85;;;15.50;75.40;;;;;;349554;28;1011;-54
2023/10/23 00:46:19;;;;;;;1.27;0.80;;;15.50;75.50;;;;;;349531;28;892;-53
2023/10/23 00:46:30;;;;;;;1.63;0.80;;;15.50;75.50;;;;;;349651;28;1097;-53
2023/10/23 00:46:43;;;;;;;1.40;0.60;;;15.50;75.40;;;;;;349563;28;1094;-53
2023/10/23 00:46:54;;;;;;;1.40;0.70;;;15.50;75.00;;;;;;349651;28;1024;-52
2023/10/23 00:47:07;;;;;;;1.34;0.70;;;15.40;74.90;;;;;;349707;28;841;-53
2023/10/23 00:47:21;;;;;;;1.70;1.00;;;15.40;75.00;;;;;;349608;28;1182;-53
2023/10/23 00:47:32;;;;;;;2.13;1.20;;;15.40;75.20;;;;;;349511;28;1181;-53
2023/10/23 00:47:43;;;;;;;2.05;1.15;;;15.40;75.30;;;;;;349634;28;880;-53
2023/10/23 00:47:53;;;;;;;1.63;0.90;;;15.40;75.20;;;;;;349660;28;988;-53
2023/10/23 00:48:04;;;;;;;2.45;0.73;;;15.40;75.10;;;;;;349680;28;1090;-54
2023/10/23 00:48:16;;;;;;;2.97;1.15;;;15.40;75.10;;;;;;349592;28;848;-54
2023/10/23 00:48:27;;;;;;;4.55;1.85;;;15.40;75.10;;;;;;349720;28;848;-53
2023/10/23 00:48:38;;;;;;;4.03;2.00;;;15.40;75.00;;;;;;349669;28;864;-53
2023/10/23 00:48:50;;;;;;;3.08;1.23;;;15.40;74.90;;;;;;349598;28;1019;-53
2023/10/23 00:49:02;;;;;;;1.15;0.57;;;15.30;73.50;;;;;;349562;28;971;-53
2023/10/23 00:49:13;;;;;;;0.98;0.52;;;15.20;73.80;;;;;;349655;28;1003;-53
2023/10/23 00:49:24;;;;;;;1.33;0.75;;;15.20;74.40;;;;;;349657;28;848;-53
2023/10/23 00:49:36;;;;;;;1.95;1.13;;;15.20;74.70;;;;;;349650;28;1035;-53
2023/10/23 00:49:47;;;;;;;2.42;1.20;;;15.10;75.00;;;;;;349555;28;1486;-53
2023/10/23 00:49:59;;;;;;;3.07;1.60;;;15.10;75.10;;;;;;349639;28;1609;-53
2023/10/23 00:50:10;;;;;;;2.92;1.73;;;15.20;75.10;;;;;;349652;28;969;-53
2023/10/23 00:50:21;;;;;;;2.60;1.75;;;15.20;75.20;;;;;;349632;28;1035;-54
2023/10/23 00:50:32;;;;;;;2.65;1.70;;;15.20;75.30;;;;;;349640;28;959;-52
2023/10/23 00:50:42;;;;;;;2.40;1.55;;;15.20;75.40;;;;;;349665;28;1114;-52
2023/10/23 00:50:58;;;;;;;2.97;1.40;;;15.20;75.40;;;;;;349611;28;967;-53
2023/10/23 00:51:12;;;;;;;2.70;1.02;;;15.20;75.30;;;;;;349678;28;943;-52
2023/10/23 00:51:22;;;;;;;1.88;0.73;;;15.20;75.00;;;;;;349600;28;855;-54
2023/10/23 00:51:34;;;;;;;1.30;0.50;;;15.20;75.10;;;;;;349676;28;1078;-53
2023/10/23 00:51:45;;;;;;;1.30;0.55;;;15.20;75.00;;;;;;349627;28;1249;-53
2023/10/23 00:51:56;;;;;;;1.55;0.70;;;15.30;74.80;;;;;;349612;28;1131;-53
2023/10/23 00:52:07;;;;;;;1.70;0.85;;;15.30;74.80;;;;;;349569;28;1038;-53
2023/10/23 00:52:18;;;;;;;1.47;0.80;;;15.30;75.00;;;;;;349636;28;1163;-53
2023/10/23 00:52:29;;;;;;;1.10;0.70;;;15.30;75.00;;;;;;349664;28;987;-53
2023/10/23 00:52:41;;;;;;;0.90;0.50;;;15.30;74.90;;;;;;349677;28;935;-53
2023/10/23 00:52:52;;;;;;;1.90;0.70;;;15.40;74.90;;;;;;349668;28;1023;-53
2023/10/23 00:53:02;;;;;;;2.00;0.85;;;15.40;74.90;;;;;;349575;28;1070;-52
2023/10/23 00:53:13;;;;;;;2.50;1.05;;;15.40;75.00;;;;;;349697;28;926;-53
2023/10/23 00:53:27;;;;;;;1.60;1.00;;;15.40;75.00;;;;;;349647;28;1023;-53
2023/10/23 00:53:40;;;;;;;1.75;0.90;;;15.40;74.80;;;;;;349691;28;925;-53
2023/10/23 00:53:51;;;;;;;1.70;0.70;;;15.40;74.70;;;;;;349587;28;1878;-52
2023/10/23 00:54:03;;;;;;;1.05;0.60;;;15.40;74.60;;;;;;349701;28;923;-53
2023/10/23 00:54:14;;;;;;;0.75;0.50;;;15.40;74.00;;;;;;349609;28;1134;-53
2023/10/23 00:54:26;;;;;;;0.93;0.65;;;15.40;74.10;;;;;;349691;28;991;-54
2023/10/23 00:54:38;;;;;;;1.13;0.73;;;15.40;74.00;;;;;;349543;28;1848;-53
2023/10/23 00:54:49;;;;;;;1.25;0.80;;;15.30;74.10;;;;;;349687;28;865;-53
2023/10/23 00:55:00;;;;;;;0.90;0.60;;;15.40;74.30;;;;;;349626;28;976;-52
2023/10/23 00:55:11;;;;;;;1.13;0.60;;;15.40;74.40;;;;;;349610;28;1000;-53
2023/10/23 00:55:22;;;;;;;1.60;0.70;;;15.40;74.40;;;;;;349571;28;1019;-52
2023/10/23 00:55:34;;;;;;;5.07;3.17;;;15.40;74.20;;;;;;349669;28;976;-53
2023/10/23 00:55:49;;;;;;;6.00;4.20;;;15.40;74.20;;;;;;349639;28;1000;-53
2023/10/23 00:56:02;;;;;;;6.50;4.30;;;15.40;74.10;;;;;;349615;28;1004;-54
2023/10/23 00:56:13;;;;;;;5.63;3.70;;;15.40;74.20;;;;;;349500;28;1209;-53
2023/10/23 00:56:25;;;;;;;4.47;2.97;;;15.30;74.10;;;;;;349658;28;873;-52
2023/10/23 00:56:35;;;;;;;2.38;1.45;;;15.40;74.00;;;;;;349659;28;1047;-53
2023/10/23 00:56:47;;;;;;;2.10;1.17;;;15.40;74.10;;;;;;349636;28;1067;-53
2023/10/23 00:56:58;;;;;;;1.65;0.93;;;15.40;74.10;;;;;;349569;28;1375;-53
2023/10/23 00:57:09;;;;;;;1.08;0.68;;;15.40;74.00;;;;;;349595;28;1962;-53
2023/10/23 00:57:20;;;;;;;0.68;0.50;;;15.40;73.90;;;;;;349660;28;1019;-53
2023/10/23 00:57:31;;;;;;;0.73;0.50;;;15.40;73.50;;;;;;349514;28;1227;-54
2023/10/23 00:57:42;;;;;;;0.93;0.63;;;15.40;73.10;;;;;;349675;28;1066;-52
2023/10/23 00:57:53;;;;;;;1.08;0.70;;;15.40;73.30;;;;;;349630;28;1334;-53
2023/10/23 00:58:04;;;;;;;1.63;0.80;;;15.40;73.40;;;;;;349616;28;908;-53
2023/10/23 00:58:15;;;;;;;1.42;0.65;;;15.40;73.50;;;;;;349624;28;1813;-52
2023/10/23 00:58:26;;;;;;;1.30;0.57;;;15.40;73.60;;;;;;349672;28;983;-53
2023/10/23 00:58:42;;;;;;;1.20;0.60;;;15.40;73.70;;;;;;349525;28;1011;-53
2023/10/23 00:58:53;;;;;;;1.90;1.00;;;15.40;73.80;;;;;;349618;28;869;-52
2023/10/23 00:59:04;;;;;;;1.88;1.08;;;15.40;74.00;;;;;;349654;28;1074;-53
2023/10/23 00:59:14;;;;;;;1.37;0.90;;;15.40;74.10;;;;;;349550;28;1555;-53
2023/10/23 00:59:25;;;;;;;1.15;0.73;;;15.40;74.20;;;;;;349714;28;1086;-52
2023/10/23 00:59:36;;;;;;;1.10;0.60;;;15.40;74.30;;;;;;349692;28;984;-54
2023/10/23 00:59:47;;;;;;;1.05;0.60;;;15.40;74.10;;;;;;349575;28;1091;-53
2023/10/23 00:59:58;;;;;;;1.20;0.63;;;15.40;74.00;;;;;;349683;28;904;-54